sensor_id;sensor_type;location;lat;lon;timestamp;P1;durP1;ratioP1;P2;durP2;ratioP2
12577;SDS011;6354;51.026;8.968;2023-04-10T00:02:02;46.60;;;41.70;;
12577;SDS011;6354;51.026;8.968;2023-04-10T00:04:30;79.47;;;58.40;;
12577;SDS011;6354;51.026;8.968;2023-04-10T00:06:59;88.70;;;49.37;;
12577;SDS011;6354;51.026;8.968;2023-04-10T00:09:27;65.60;;;47.17;;
12577;SDS011;6354;51.026;8.968;2023-04-10T00:11:55;43.17;;;38.87;;
12577;SDS011;6354;51.026;8.968;2023-04-10T00:14:23;55.00;;;40.80;;
12577;SDS011;6354;51.026;8.968;2023-04-10T00:16:51;78.40;;;51.93;;
12577;SDS011;6354;51.026;8.968;2023-04-10T00:19:21;81.43;;;53.43;;
12577;SDS011;6354;51.026;8.968;2023-04-10T00:21:49;66.97;;;38.83;;
12577;SDS011;6354;51.026;8.968;2023-04-10T00:24:17;129.17;;;69.90;;
12577;SDS011;6354;51.026;8.968;2023-04-10T00:26:45;43.10;;;35.27;;
12577;SDS011;6354;51.026;8.968;2023-04-10T00:29:13;45.33;;;32.27;;
12577;SDS011;6354;51.026;8.968;2023-04-10T00:31:41;28.73;;;25.33;;
12577;SDS011;6354;51.026;8.968;2023-04-10T00:34:09;40.03;;;35.80;;
12577;SDS011;6354;51.026;8.968;2023-04-10T00:36:38;53.57;;;42.43;;
12577;SDS011;6354;51.026;8.968;2023-04-10T00:39:07;87.50;;;62.40;;
12577;SDS011;6354;51.026;8.968;2023-04-10T00:41:35;62.93;;;43.77;;
12577;SDS011;6354;51.026;8.968;2023-04-10T00:44:03;41.70;;;33.97;;
12577;SDS011;6354;51.026;8.968;2023-04-10T00:46:31;42.03;;;26.37;;
12577;SDS011;6354;51.026;8.968;2023-04-10T00:49:00;32.57;;;29.07;;
12577;SDS011;6354;51.026;8.968;2023-04-10T00:51:28;50.80;;;37.20;;
12577;SDS011;6354;51.026;8.968;2023-04-10T00:53:58;91.07;;;62.60;;
12577;SDS011;6354;51.026;8.968;2023-04-10T00:56:28;141.70;;;60.93;;
12577;SDS011;6354;51.026;8.968;2023-04-10T00:58:57;36.80;;;28.33;;
12577;SDS011;6354;51.026;8.968;2023-04-10T01:01:25;78.10;;;62.67;;
12577;SDS011;6354;51.026;8.968;2023-04-10T01:03:53;53.53;;;29.63;;
12577;SDS011;6354;51.026;8.968;2023-04-10T01:06:25;62.53;;;45.70;;
12577;SDS011;6354;51.026;8.968;2023-04-10T01:09:05;89.27;;;60.50;;
12577;SDS011;6354;51.026;8.968;2023-04-10T01:11:40;99.40;;;60.93;;
12577;SDS011;6354;51.026;8.968;2023-04-10T01:14:18;635.70;;;179.80;;
12577;SDS011;6354;51.026;8.968;2023-04-10T01:16:59;66.70;;;46.30;;
12577;SDS011;6354;51.026;8.968;2023-04-10T01:19:40;79.80;;;66.60;;
12577;SDS011;6354;51.026;8.968;2023-04-10T01:22:27;55.40;;;35.43;;
12577;SDS011;6354;51.026;8.968;2023-04-10T01:25:08;103.37;;;67.03;;
12577;SDS011;6354;51.026;8.968;2023-04-10T01:27:54;35.10;;;26.30;;
12577;SDS011;6354;51.026;8.968;2023-04-10T01:30:34;51.73;;;33.07;;
12577;SDS011;6354;51.026;8.968;2023-04-10T01:33:04;70.60;;;50.53;;
12577;SDS011;6354;51.026;8.968;2023-04-10T01:35:36;75.83;;;65.83;;
12577;SDS011;6354;51.026;8.968;2023-04-10T01:38:06;58.53;;;45.63;;
12577;SDS011;6354;51.026;8.968;2023-04-10T01:40:35;31.53;;;28.30;;
12577;SDS011;6354;51.026;8.968;2023-04-10T01:43:08;97.33;;;54.67;;
12577;SDS011;6354;51.026;8.968;2023-04-10T01:45:39;125.67;;;56.63;;
12577;SDS011;6354;51.026;8.968;2023-04-10T01:48:08;31.27;;;23.27;;
12577;SDS011;6354;51.026;8.968;2023-04-10T01:50:37;74.73;;;41.67;;
12577;SDS011;6354;51.026;8.968;2023-04-10T01:53:05;45.93;;;41.03;;
12577;SDS011;6354;51.026;8.968;2023-04-10T01:55:35;40.67;;;33.13;;
12577;SDS011;6354;51.026;8.968;2023-04-10T01:58:12;29.93;;;26.83;;
12577;SDS011;6354;51.026;8.968;2023-04-10T02:00:41;81.17;;;72.53;;
12577;SDS011;6354;51.026;8.968;2023-04-10T02:03:10;44.43;;;32.80;;
12577;SDS011;6354;51.026;8.968;2023-04-10T02:05:40;40.00;;;33.57;;
12577;SDS011;6354;51.026;8.968;2023-04-10T02:08:19;35.57;;;21.97;;
12577;SDS011;6354;51.026;8.968;2023-04-10T02:10:53;54.23;;;40.43;;
12577;SDS011;6354;51.026;8.968;2023-04-10T02:13:28;62.63;;;51.80;;
12577;SDS011;6354;51.026;8.968;2023-04-10T02:16:00;32.47;;;28.20;;
12577;SDS011;6354;51.026;8.968;2023-04-10T02:18:33;75.43;;;52.17;;
12577;SDS011;6354;51.026;8.968;2023-04-10T02:21:03;221.40;;;96.30;;
12577;SDS011;6354;51.026;8.968;2023-04-10T02:23:31;43.33;;;38.73;;
12577;SDS011;6354;51.026;8.968;2023-04-10T02:26:04;87.50;;;77.90;;
12577;SDS011;6354;51.026;8.968;2023-04-10T02:28:33;67.63;;;59.43;;
12577;SDS011;6354;51.026;8.968;2023-04-10T02:31:05;64.23;;;54.37;;
12577;SDS011;6354;51.026;8.968;2023-04-10T02:33:33;62.87;;;47.23;;
12577;SDS011;6354;51.026;8.968;2023-04-10T02:36:01;94.53;;;83.37;;
12577;SDS011;6354;51.026;8.968;2023-04-10T02:38:30;81.53;;;63.33;;
12577;SDS011;6354;51.026;8.968;2023-04-10T02:40:58;51.87;;;42.53;;
12577;SDS011;6354;51.026;8.968;2023-04-10T02:43:26;66.63;;;55.20;;
12577;SDS011;6354;51.026;8.968;2023-04-10T02:45:54;48.57;;;34.43;;
12577;SDS011;6354;51.026;8.968;2023-04-10T02:48:24;50.37;;;40.20;;
12577;SDS011;6354;51.026;8.968;2023-04-10T02:50:54;52.60;;;36.10;;
12577;SDS011;6354;51.026;8.968;2023-04-10T02:53:23;50.70;;;39.37;;
12577;SDS011;6354;51.026;8.968;2023-04-10T02:55:52;51.37;;;40.03;;
12577;SDS011;6354;51.026;8.968;2023-04-10T02:58:20;60.13;;;51.53;;
12577;SDS011;6354;51.026;8.968;2023-04-10T03:00:49;50.93;;;45.80;;
12577;SDS011;6354;51.026;8.968;2023-04-10T03:03:17;62.63;;;48.43;;
12577;SDS011;6354;51.026;8.968;2023-04-10T03:05:47;74.80;;;41.83;;
12577;SDS011;6354;51.026;8.968;2023-04-10T03:08:16;71.90;;;52.70;;
12577;SDS011;6354;51.026;8.968;2023-04-10T03:10:45;37.07;;;20.63;;
12577;SDS011;6354;51.026;8.968;2023-04-10T03:13:14;40.97;;;31.33;;
12577;SDS011;6354;51.026;8.968;2023-04-10T03:15:43;130.03;;;80.40;;
12577;SDS011;6354;51.026;8.968;2023-04-10T03:18:11;53.40;;;40.33;;
12577;SDS011;6354;51.026;8.968;2023-04-10T03:20:39;36.93;;;30.23;;
12577;SDS011;6354;51.026;8.968;2023-04-10T03:23:11;46.50;;;32.77;;
12577;SDS011;6354;51.026;8.968;2023-04-10T03:25:39;52.73;;;47.20;;
12577;SDS011;6354;51.026;8.968;2023-04-10T03:28:07;39.17;;;34.07;;
12577;SDS011;6354;51.026;8.968;2023-04-10T03:30:35;56.97;;;41.60;;
12577;SDS011;6354;51.026;8.968;2023-04-10T03:33:04;32.00;;;27.27;;
12577;SDS011;6354;51.026;8.968;2023-04-10T03:35:32;74.03;;;63.93;;
12577;SDS011;6354;51.026;8.968;2023-04-10T03:38:00;63.67;;;55.10;;
12577;SDS011;6354;51.026;8.968;2023-04-10T03:40:29;76.70;;;61.40;;
12577;SDS011;6354;51.026;8.968;2023-04-10T03:42:59;57.97;;;35.93;;
12577;SDS011;6354;51.026;8.968;2023-04-10T03:45:27;34.63;;;26.90;;
12577;SDS011;6354;51.026;8.968;2023-04-10T03:47:55;51.20;;;37.50;;
12577;SDS011;6354;51.026;8.968;2023-04-10T03:50:23;61.07;;;43.43;;
12577;SDS011;6354;51.026;8.968;2023-04-10T03:52:51;75.17;;;44.07;;
12577;SDS011;6354;51.026;8.968;2023-04-10T03:55:19;53.00;;;32.97;;
12577;SDS011;6354;51.026;8.968;2023-04-10T03:57:49;44.30;;;33.57;;
12577;SDS011;6354;51.026;8.968;2023-04-10T04:00:17;63.60;;;53.53;;
12577;SDS011;6354;51.026;8.968;2023-04-10T04:02:46;49.83;;;34.57;;
12577;SDS011;6354;51.026;8.968;2023-04-10T04:05:16;68.30;;;60.80;;
12577;SDS011;6354;51.026;8.968;2023-04-10T04:07:44;47.37;;;32.20;;
12577;SDS011;6354;51.026;8.968;2023-04-10T04:10:12;43.33;;;39.33;;
12577;SDS011;6354;51.026;8.968;2023-04-10T04:12:40;85.30;;;60.83;;
12577;SDS011;6354;51.026;8.968;2023-04-10T04:15:10;69.10;;;53.90;;
12577;SDS011;6354;51.026;8.968;2023-04-10T04:17:38;80.00;;;45.90;;
12577;SDS011;6354;51.026;8.968;2023-04-10T04:20:06;28.70;;;25.57;;
12577;SDS011;6354;51.026;8.968;2023-04-10T04:22:35;80.63;;;67.23;;
12577;SDS011;6354;51.026;8.968;2023-04-10T04:25:03;64.80;;;38.17;;
12577;SDS011;6354;51.026;8.968;2023-04-10T04:27:35;43.30;;;28.87;;
12577;SDS011;6354;51.026;8.968;2023-04-10T04:30:04;32.43;;;24.60;;
12577;SDS011;6354;51.026;8.968;2023-04-10T04:32:34;30.87;;;22.33;;
12577;SDS011;6354;51.026;8.968;2023-04-10T04:35:02;60.23;;;52.67;;
12577;SDS011;6354;51.026;8.968;2023-04-10T04:37:31;37.47;;;29.17;;
12577;SDS011;6354;51.026;8.968;2023-04-10T04:39:59;89.03;;;67.70;;
12577;SDS011;6354;51.026;8.968;2023-04-10T04:42:28;61.57;;;48.60;;
12577;SDS011;6354;51.026;8.968;2023-04-10T04:44:56;52.47;;;38.80;;
12577;SDS011;6354;51.026;8.968;2023-04-10T04:47:24;96.47;;;52.77;;
12577;SDS011;6354;51.026;8.968;2023-04-10T04:49:53;85.97;;;63.87;;
12577;SDS011;6354;51.026;8.968;2023-04-10T04:52:21;77.20;;;59.50;;
12577;SDS011;6354;51.026;8.968;2023-04-10T04:54:50;60.03;;;45.43;;
12577;SDS011;6354;51.026;8.968;2023-04-10T04:57:18;53.00;;;36.23;;
12577;SDS011;6354;51.026;8.968;2023-04-10T04:59:46;76.57;;;59.17;;
12577;SDS011;6354;51.026;8.968;2023-04-10T05:02:14;70.67;;;49.83;;
12577;SDS011;6354;51.026;8.968;2023-04-10T05:04:44;85.70;;;58.70;;
12577;SDS011;6354;51.026;8.968;2023-04-10T05:07:13;70.63;;;46.77;;
12577;SDS011;6354;51.026;8.968;2023-04-10T05:09:41;79.10;;;52.57;;
12577;SDS011;6354;51.026;8.968;2023-04-10T05:12:09;65.90;;;46.87;;
12577;SDS011;6354;51.026;8.968;2023-04-10T05:14:37;42.47;;;33.33;;
12577;SDS011;6354;51.026;8.968;2023-04-10T05:17:05;70.07;;;50.70;;
12577;SDS011;6354;51.026;8.968;2023-04-10T05:19:33;48.47;;;32.63;;
12577;SDS011;6354;51.026;8.968;2023-04-10T05:22:01;39.13;;;29.80;;
12577;SDS011;6354;51.026;8.968;2023-04-10T05:24:31;50.13;;;40.83;;
12577;SDS011;6354;51.026;8.968;2023-04-10T05:26:59;34.83;;;28.77;;
12577;SDS011;6354;51.026;8.968;2023-04-10T05:29:27;93.53;;;43.73;;
12577;SDS011;6354;51.026;8.968;2023-04-10T05:31:55;81.47;;;52.10;;
12577;SDS011;6354;51.026;8.968;2023-04-10T05:34:23;51.60;;;38.13;;
12577;SDS011;6354;51.026;8.968;2023-04-10T05:36:51;119.77;;;75.67;;
12577;SDS011;6354;51.026;8.968;2023-04-10T05:39:21;56.50;;;45.97;;
12577;SDS011;6354;51.026;8.968;2023-04-10T05:41:50;55.43;;;40.67;;
12577;SDS011;6354;51.026;8.968;2023-04-10T05:44:18;71.07;;;43.07;;
12577;SDS011;6354;51.026;8.968;2023-04-10T05:46:46;43.63;;;34.77;;
12577;SDS011;6354;51.026;8.968;2023-04-10T05:49:15;253.53;;;106.37;;
12577;SDS011;6354;51.026;8.968;2023-04-10T05:51:43;322.03;;;143.33;;
12577;SDS011;6354;51.026;8.968;2023-04-10T05:54:15;456.87;;;212.27;;
12577;SDS011;6354;51.026;8.968;2023-04-10T05:56:43;181.40;;;114.93;;
12577;SDS011;6354;51.026;8.968;2023-04-10T05:59:12;544.23;;;198.87;;
12577;SDS011;6354;51.026;8.968;2023-04-10T06:01:40;594.93;;;333.47;;
12577;SDS011;6354;51.026;8.968;2023-04-10T06:04:08;1314.97;;;402.40;;
12577;SDS011;6354;51.026;8.968;2023-04-10T06:06:37;1657.07;;;565.67;;
12577;SDS011;6354;51.026;8.968;2023-04-10T06:09:06;1351.30;;;381.90;;
12577;SDS011;6354;51.026;8.968;2023-04-10T06:11:34;1955.80;;;679.83;;
12577;SDS011;6354;51.026;8.968;2023-04-10T06:14:01;1262.63;;;371.93;;
12577;SDS011;6354;51.026;8.968;2023-04-10T06:16:31;1999.90;;;620.73;;
12577;SDS011;6354;51.026;8.968;2023-04-10T06:18:59;1999.90;;;884.57;;
12577;SDS011;6354;51.026;8.968;2023-04-10T06:21:27;1999.90;;;857.30;;
12577;SDS011;6354;51.026;8.968;2023-04-10T06:23:55;1999.90;;;605.27;;
12577;SDS011;6354;51.026;8.968;2023-04-10T06:26:23;1999.90;;;732.50;;
12577;SDS011;6354;51.026;8.968;2023-04-10T06:28:51;1999.90;;;878.63;;
12577;SDS011;6354;51.026;8.968;2023-04-10T06:31:20;1999.90;;;999.90;;
12577;SDS011;6354;51.026;8.968;2023-04-10T06:33:49;1999.90;;;848.17;;
12577;SDS011;6354;51.026;8.968;2023-04-10T06:36:17;1999.90;;;999.90;;
12577;SDS011;6354;51.026;8.968;2023-04-10T06:38:45;1999.90;;;951.47;;
12577;SDS011;6354;51.026;8.968;2023-04-10T06:41:13;1999.90;;;967.47;;
12577;SDS011;6354;51.026;8.968;2023-04-10T06:43:41;1999.90;;;971.47;;
12577;SDS011;6354;51.026;8.968;2023-04-10T06:46:11;1999.90;;;932.13;;
12577;SDS011;6354;51.026;8.968;2023-04-10T06:48:39;1999.90;;;934.33;;
12577;SDS011;6354;51.026;8.968;2023-04-10T06:51:08;1999.90;;;975.53;;
12577;SDS011;6354;51.026;8.968;2023-04-10T06:53:36;1999.90;;;999.90;;
12577;SDS011;6354;51.026;8.968;2023-04-10T06:56:04;1999.90;;;999.90;;
12577;SDS011;6354;51.026;8.968;2023-04-10T06:58:33;1999.90;;;936.27;;
12577;SDS011;6354;51.026;8.968;2023-04-10T07:01:01;1999.90;;;995.03;;
12577;SDS011;6354;51.026;8.968;2023-04-10T07:03:30;1999.90;;;919.83;;
12577;SDS011;6354;51.026;8.968;2023-04-10T07:05:59;1999.90;;;914.20;;
12577;SDS011;6354;51.026;8.968;2023-04-10T07:08:29;1999.90;;;997.97;;
12577;SDS011;6354;51.026;8.968;2023-04-10T07:10:57;1999.90;;;965.40;;
12577;SDS011;6354;51.026;8.968;2023-04-10T07:13:25;1999.90;;;999.90;;
12577;SDS011;6354;51.026;8.968;2023-04-10T07:15:53;1999.90;;;999.90;;
12577;SDS011;6354;51.026;8.968;2023-04-10T07:18:21;1999.90;;;999.90;;
12577;SDS011;6354;51.026;8.968;2023-04-10T07:20:49;1999.90;;;999.90;;
12577;SDS011;6354;51.026;8.968;2023-04-10T07:23:19;1999.90;;;999.90;;
12577;SDS011;6354;51.026;8.968;2023-04-10T07:25:49;1999.90;;;999.90;;
12577;SDS011;6354;51.026;8.968;2023-04-10T07:28:18;1999.90;;;999.90;;
12577;SDS011;6354;51.026;8.968;2023-04-10T07:30:46;1999.90;;;999.90;;
12577;SDS011;6354;51.026;8.968;2023-04-10T07:33:14;1999.90;;;999.90;;
12577;SDS011;6354;51.026;8.968;2023-04-10T07:35:42;1999.90;;;999.90;;
12577;SDS011;6354;51.026;8.968;2023-04-10T07:38:10;1999.90;;;999.90;;
12577;SDS011;6354;51.026;8.968;2023-04-10T07:40:39;1999.90;;;999.90;;
12577;SDS011;6354;51.026;8.968;2023-04-10T07:43:08;1999.90;;;999.90;;
12577;SDS011;6354;51.026;8.968;2023-04-10T07:45:36;1999.90;;;999.90;;
12577;SDS011;6354;51.026;8.968;2023-04-10T07:48:05;1999.90;;;999.90;;
12577;SDS011;6354;51.026;8.968;2023-04-10T07:50:33;1999.90;;;999.90;;
12577;SDS011;6354;51.026;8.968;2023-04-10T07:53:01;1999.90;;;999.90;;
12577;SDS011;6354;51.026;8.968;2023-04-10T07:55:36;1999.90;;;999.90;;
12577;SDS011;6354;51.026;8.968;2023-04-10T07:58:04;1999.90;;;999.90;;
12577;SDS011;6354;51.026;8.968;2023-04-10T08:00:34;1999.90;;;999.90;;
12577;SDS011;6354;51.026;8.968;2023-04-10T08:03:02;1999.90;;;999.90;;
12577;SDS011;6354;51.026;8.968;2023-04-10T08:05:31;1999.90;;;999.90;;
12577;SDS011;6354;51.026;8.968;2023-04-10T08:08:00;1999.90;;;999.90;;
12577;SDS011;6354;51.026;8.968;2023-04-10T08:10:28;1999.90;;;999.90;;
12577;SDS011;6354;51.026;8.968;2023-04-10T08:12:56;1999.90;;;999.90;;
12577;SDS011;6354;51.026;8.968;2023-04-10T08:15:24;1999.90;;;999.90;;
12577;SDS011;6354;51.026;8.968;2023-04-10T08:17:53;1999.90;;;999.90;;
12577;SDS011;6354;51.026;8.968;2023-04-10T08:20:21;1999.90;;;999.90;;
12577;SDS011;6354;51.026;8.968;2023-04-10T08:22:49;1999.90;;;995.60;;
12577;SDS011;6354;51.026;8.968;2023-04-10T08:25:17;1999.90;;;999.90;;
12577;SDS011;6354;51.026;8.968;2023-04-10T08:27:45;1999.90;;;999.90;;
12577;SDS011;6354;51.026;8.968;2023-04-10T08:30:13;1999.90;;;999.90;;
12577;SDS011;6354;51.026;8.968;2023-04-10T08:32:41;1999.90;;;999.90;;
12577;SDS011;6354;51.026;8.968;2023-04-10T08:35:11;1999.90;;;999.90;;
12577;SDS011;6354;51.026;8.968;2023-04-10T08:37:39;1999.90;;;999.90;;
12577;SDS011;6354;51.026;8.968;2023-04-10T08:40:11;1999.90;;;999.90;;
12577;SDS011;6354;51.026;8.968;2023-04-10T08:42:40;1999.90;;;999.90;;
12577;SDS011;6354;51.026;8.968;2023-04-10T08:45:09;1999.90;;;999.90;;
12577;SDS011;6354;51.026;8.968;2023-04-10T08:47:37;1999.90;;;999.90;;
12577;SDS011;6354;51.026;8.968;2023-04-10T08:50:08;1999.90;;;999.90;;
12577;SDS011;6354;51.026;8.968;2023-04-10T08:52:41;1999.90;;;999.90;;
12577;SDS011;6354;51.026;8.968;2023-04-10T08:55:11;1999.90;;;999.90;;
12577;SDS011;6354;51.026;8.968;2023-04-10T08:57:40;1999.90;;;999.90;;
12577;SDS011;6354;51.026;8.968;2023-04-10T09:00:23;1999.90;;;999.90;;
12577;SDS011;6354;51.026;8.968;2023-04-10T09:02:51;1999.90;;;999.90;;
12577;SDS011;6354;51.026;8.968;2023-04-10T09:05:25;1999.90;;;999.90;;
12577;SDS011;6354;51.026;8.968;2023-04-10T09:07:54;1999.90;;;999.90;;
12577;SDS011;6354;51.026;8.968;2023-04-10T09:10:22;1999.90;;;999.90;;
12577;SDS011;6354;51.026;8.968;2023-04-10T09:12:50;1999.90;;;999.90;;
12577;SDS011;6354;51.026;8.968;2023-04-10T09:15:19;1999.90;;;999.90;;
12577;SDS011;6354;51.026;8.968;2023-04-10T09:17:53;1999.90;;;999.90;;
12577;SDS011;6354;51.026;8.968;2023-04-10T09:20:23;1999.90;;;999.90;;
12577;SDS011;6354;51.026;8.968;2023-04-10T09:22:55;1999.90;;;999.90;;
12577;SDS011;6354;51.026;8.968;2023-04-10T09:25:30;1999.90;;;999.90;;
12577;SDS011;6354;51.026;8.968;2023-04-10T09:28:03;1999.90;;;999.90;;
12577;SDS011;6354;51.026;8.968;2023-04-10T09:30:33;1999.90;;;999.90;;
12577;SDS011;6354;51.026;8.968;2023-04-10T09:33:10;1999.90;;;999.90;;
12577;SDS011;6354;51.026;8.968;2023-04-10T09:35:49;1999.90;;;999.90;;
12577;SDS011;6354;51.026;8.968;2023-04-10T09:38:18;1999.90;;;999.90;;
12577;SDS011;6354;51.026;8.968;2023-04-10T09:40:47;1999.90;;;999.90;;
12577;SDS011;6354;51.026;8.968;2023-04-10T09:43:19;1999.90;;;999.90;;
12577;SDS011;6354;51.026;8.968;2023-04-10T09:45:49;1999.90;;;999.90;;
12577;SDS011;6354;51.026;8.968;2023-04-10T09:48:19;1999.90;;;999.90;;
12577;SDS011;6354;51.026;8.968;2023-04-10T09:50:49;1999.90;;;999.90;;
12577;SDS011;6354;51.026;8.968;2023-04-10T09:53:18;1999.90;;;999.90;;
12577;SDS011;6354;51.026;8.968;2023-04-10T09:55:48;1999.90;;;999.90;;
12577;SDS011;6354;51.026;8.968;2023-04-10T09:58:16;1999.90;;;999.90;;
12577;SDS011;6354;51.026;8.968;2023-04-10T10:00:45;1999.90;;;999.90;;
12577;SDS011;6354;51.026;8.968;2023-04-10T10:03:15;1999.90;;;999.90;;
12577;SDS011;6354;51.026;8.968;2023-04-10T10:05:44;1999.90;;;999.90;;
12577;SDS011;6354;51.026;8.968;2023-04-10T10:08:16;1999.90;;;999.90;;
12577;SDS011;6354;51.026;8.968;2023-04-10T10:10:45;1999.90;;;999.90;;
12577;SDS011;6354;51.026;8.968;2023-04-10T10:13:14;1999.90;;;999.90;;
12577;SDS011;6354;51.026;8.968;2023-04-10T10:15:49;1999.90;;;999.90;;
12577;SDS011;6354;51.026;8.968;2023-04-10T10:18:24;1999.90;;;999.90;;
12577;SDS011;6354;51.026;8.968;2023-04-10T10:20:58;1999.90;;;999.90;;
12577;SDS011;6354;51.026;8.968;2023-04-10T10:23:30;1999.90;;;999.90;;
12577;SDS011;6354;51.026;8.968;2023-04-10T10:25:59;1999.90;;;999.90;;
12577;SDS011;6354;51.026;8.968;2023-04-10T10:28:31;1999.90;;;999.90;;
12577;SDS011;6354;51.026;8.968;2023-04-10T10:31:01;1999.90;;;999.90;;
12577;SDS011;6354;51.026;8.968;2023-04-10T10:33:30;1999.90;;;999.90;;
12577;SDS011;6354;51.026;8.968;2023-04-10T10:36:02;1999.90;;;999.90;;
12577;SDS011;6354;51.026;8.968;2023-04-10T10:38:32;1999.90;;;999.90;;
12577;SDS011;6354;51.026;8.968;2023-04-10T10:41:01;1999.90;;;999.90;;
12577;SDS011;6354;51.026;8.968;2023-04-10T10:43:41;1999.90;;;999.90;;
12577;SDS011;6354;51.026;8.968;2023-04-10T10:46:16;1999.90;;;999.90;;
12577;SDS011;6354;51.026;8.968;2023-04-10T10:48:55;1999.90;;;999.90;;
12577;SDS011;6354;51.026;8.968;2023-04-10T10:51:33;1999.90;;;999.90;;
12577;SDS011;6354;51.026;8.968;2023-04-10T10:54:30;1999.90;;;999.90;;
12577;SDS011;6354;51.026;8.968;2023-04-10T10:56:59;1999.90;;;999.90;;
12577;SDS011;6354;51.026;8.968;2023-04-10T11:02:24;1999.90;;;999.90;;
12577;SDS011;6354;51.026;8.968;2023-04-10T11:04:52;1999.90;;;999.90;;
12577;SDS011;6354;51.026;8.968;2023-04-10T11:07:20;1999.90;;;999.90;;
12577;SDS011;6354;51.026;8.968;2023-04-10T11:09:50;1999.90;;;999.90;;
12577;SDS011;6354;51.026;8.968;2023-04-10T11:12:21;1999.90;;;999.90;;
12577;SDS011;6354;51.026;8.968;2023-04-10T11:14:57;1999.90;;;999.90;;
12577;SDS011;6354;51.026;8.968;2023-04-10T11:20:14;1999.90;;;999.90;;
12577;SDS011;6354;51.026;8.968;2023-04-10T11:25:49;1999.90;;;999.90;;
12577;SDS011;6354;51.026;8.968;2023-04-10T11:31:12;1999.90;;;999.90;;
12577;SDS011;6354;51.026;8.968;2023-04-10T11:33:44;1999.90;;;999.90;;
12577;SDS011;6354;51.026;8.968;2023-04-10T11:36:13;1999.90;;;999.90;;
12577;SDS011;6354;51.026;8.968;2023-04-10T11:38:53;1999.90;;;999.90;;
12577;SDS011;6354;51.026;8.968;2023-04-10T11:41:26;1999.90;;;999.90;;
12577;SDS011;6354;51.026;8.968;2023-04-10T11:43:56;1999.90;;;999.90;;
12577;SDS011;6354;51.026;8.968;2023-04-10T11:46:25;1999.90;;;999.90;;
12577;SDS011;6354;51.026;8.968;2023-04-10T11:48:54;1999.90;;;999.90;;
12577;SDS011;6354;51.026;8.968;2023-04-10T11:51:25;1999.90;;;999.90;;
12577;SDS011;6354;51.026;8.968;2023-04-10T11:54:03;1999.90;;;999.90;;
12577;SDS011;6354;51.026;8.968;2023-04-10T11:56:34;1999.90;;;999.90;;
12577;SDS011;6354;51.026;8.968;2023-04-10T11:59:02;1999.90;;;999.90;;
12577;SDS011;6354;51.026;8.968;2023-04-10T12:01:33;1999.90;;;999.90;;
12577;SDS011;6354;51.026;8.968;2023-04-10T12:04:01;1999.90;;;999.90;;
12577;SDS011;6354;51.026;8.968;2023-04-10T12:06:30;1999.90;;;999.90;;
12577;SDS011;6354;51.026;8.968;2023-04-10T12:08:58;1999.90;;;999.90;;
12577;SDS011;6354;51.026;8.968;2023-04-10T12:11:26;1999.90;;;999.90;;
12577;SDS011;6354;51.026;8.968;2023-04-10T12:13:56;1999.90;;;999.90;;
12577;SDS011;6354;51.026;8.968;2023-04-10T12:16:24;1999.90;;;999.90;;
12577;SDS011;6354;51.026;8.968;2023-04-10T12:18:52;1999.90;;;999.90;;
12577;SDS011;6354;51.026;8.968;2023-04-10T12:21:22;1999.90;;;999.90;;
12577;SDS011;6354;51.026;8.968;2023-04-10T12:23:49;1999.90;;;999.90;;
12577;SDS011;6354;51.026;8.968;2023-04-10T12:26:18;1999.90;;;999.90;;
12577;SDS011;6354;51.026;8.968;2023-04-10T12:28:51;1999.90;;;999.90;;
12577;SDS011;6354;51.026;8.968;2023-04-10T12:31:28;1999.90;;;999.90;;
12577;SDS011;6354;51.026;8.968;2023-04-10T12:33:58;1999.90;;;999.90;;
12577;SDS011;6354;51.026;8.968;2023-04-10T12:36:27;1999.90;;;999.90;;
12577;SDS011;6354;51.026;8.968;2023-04-10T12:38:57;1999.90;;;999.90;;
12577;SDS011;6354;51.026;8.968;2023-04-10T12:41:27;1999.90;;;999.90;;
12577;SDS011;6354;51.026;8.968;2023-04-10T12:44:06;1999.90;;;999.90;;
12577;SDS011;6354;51.026;8.968;2023-04-10T12:46:37;1999.90;;;999.90;;
12577;SDS011;6354;51.026;8.968;2023-04-10T12:49:09;1999.90;;;999.90;;
12577;SDS011;6354;51.026;8.968;2023-04-10T12:51:42;1999.90;;;999.90;;
12577;SDS011;6354;51.026;8.968;2023-04-10T12:54:11;1999.90;;;999.90;;
12577;SDS011;6354;51.026;8.968;2023-04-10T12:56:53;1999.90;;;999.90;;
12577;SDS011;6354;51.026;8.968;2023-04-10T12:59:23;1999.90;;;999.90;;
12577;SDS011;6354;51.026;8.968;2023-04-10T13:01:53;1999.90;;;999.90;;
12577;SDS011;6354;51.026;8.968;2023-04-10T13:04:21;1999.90;;;999.90;;
12577;SDS011;6354;51.026;8.968;2023-04-10T13:06:49;1999.90;;;999.90;;
12577;SDS011;6354;51.026;8.968;2023-04-10T13:09:18;1999.90;;;999.90;;
12577;SDS011;6354;51.026;8.968;2023-04-10T13:11:47;1999.90;;;999.90;;
12577;SDS011;6354;51.026;8.968;2023-04-10T13:14:17;1999.90;;;999.90;;
12577;SDS011;6354;51.026;8.968;2023-04-10T13:16:45;1999.90;;;999.90;;
12577;SDS011;6354;51.026;8.968;2023-04-10T13:19:15;1999.90;;;999.90;;
12577;SDS011;6354;51.026;8.968;2023-04-10T13:21:43;1999.90;;;999.90;;
12577;SDS011;6354;51.026;8.968;2023-04-10T13:24:11;1999.90;;;999.90;;
12577;SDS011;6354;51.026;8.968;2023-04-10T13:26:42;1999.90;;;999.90;;
12577;SDS011;6354;51.026;8.968;2023-04-10T13:29:10;1999.90;;;999.90;;
12577;SDS011;6354;51.026;8.968;2023-04-10T13:31:38;1999.90;;;999.90;;
12577;SDS011;6354;51.026;8.968;2023-04-10T13:34:06;1999.90;;;999.90;;
12577;SDS011;6354;51.026;8.968;2023-04-10T13:36:35;1999.90;;;999.90;;
12577;SDS011;6354;51.026;8.968;2023-04-10T13:39:04;1999.90;;;999.90;;
12577;SDS011;6354;51.026;8.968;2023-04-10T13:41:32;1999.90;;;999.90;;
12577;SDS011;6354;51.026;8.968;2023-04-10T13:44:00;1999.90;;;999.90;;
12577;SDS011;6354;51.026;8.968;2023-04-10T13:46:28;1999.90;;;999.90;;
12577;SDS011;6354;51.026;8.968;2023-04-10T13:48:56;1999.90;;;999.90;;
12577;SDS011;6354;51.026;8.968;2023-04-10T13:51:24;1999.90;;;999.90;;
12577;SDS011;6354;51.026;8.968;2023-04-10T13:53:54;1999.90;;;999.90;;
12577;SDS011;6354;51.026;8.968;2023-04-10T13:56:23;1999.90;;;999.90;;
12577;SDS011;6354;51.026;8.968;2023-04-10T13:58:51;1999.90;;;999.90;;
12577;SDS011;6354;51.026;8.968;2023-04-10T14:01:20;1999.90;;;999.90;;
12577;SDS011;6354;51.026;8.968;2023-04-10T14:03:49;1999.90;;;999.90;;
12577;SDS011;6354;51.026;8.968;2023-04-10T14:06:18;1999.90;;;999.90;;
12577;SDS011;6354;51.026;8.968;2023-04-10T14:08:47;1999.90;;;999.90;;
12577;SDS011;6354;51.026;8.968;2023-04-10T14:11:17;1999.90;;;999.90;;
12577;SDS011;6354;51.026;8.968;2023-04-10T14:13:45;1999.90;;;999.90;;
12577;SDS011;6354;51.026;8.968;2023-04-10T14:16:13;1999.90;;;999.90;;
12577;SDS011;6354;51.026;8.968;2023-04-10T14:18:41;1999.90;;;999.90;;
12577;SDS011;6354;51.026;8.968;2023-04-10T14:21:09;1999.90;;;999.90;;
12577;SDS011;6354;51.026;8.968;2023-04-10T14:23:37;1999.90;;;999.90;;
12577;SDS011;6354;51.026;8.968;2023-04-10T14:26:07;1999.90;;;999.90;;
12577;SDS011;6354;51.026;8.968;2023-04-10T14:28:36;1999.90;;;999.90;;
12577;SDS011;6354;51.026;8.968;2023-04-10T14:31:05;1999.90;;;999.90;;
12577;SDS011;6354;51.026;8.968;2023-04-10T14:33:34;1999.90;;;999.90;;
12577;SDS011;6354;51.026;8.968;2023-04-10T14:36:02;1999.90;;;999.90;;
12577;SDS011;6354;51.026;8.968;2023-04-10T14:38:30;1999.90;;;999.90;;